sensor_id;sensor_type;location;lat;lon;timestamp;P1;durP1;ratioP1;P2;durP2;ratioP2
33802;SDS011;20110;53.120;5.786;2023-03-19T00:02:23;5.95;;;4.35;;
33802;SDS011;20110;53.120;5.786;2023-03-19T00:04:48;4.35;;;4.15;;
33802;SDS011;20110;53.120;5.786;2023-03-19T00:07:15;4.78;;;4.45;;
33802;SDS011;20110;53.120;5.786;2023-03-19T00:09:44;4.78;;;4.47;;
33802;SDS011;20110;53.120;5.786;2023-03-19T00:12:12;8.05;;;6.93;;
33802;SDS011;20110;53.120;5.786;2023-03-19T00:14:38;5.43;;;5.07;;
33802;SDS011;20110;53.120;5.786;2023-03-19T00:17:04;4.72;;;4.32;;
33802;SDS011;20110;53.120;5.786;2023-03-19T00:19:31;9.00;;;7.40;;
33802;SDS011;20110;53.120;5.786;2023-03-19T00:21:57;4.70;;;4.25;;
33802;SDS011;20110;53.120;5.786;2023-03-19T00:24:23;5.93;;;5.53;;
33802;SDS011;20110;53.120;5.786;2023-03-19T00:26:49;9.15;;;6.90;;
33802;SDS011;20110;53.120;5.786;2023-03-19T00:29:15;7.53;;;7.10;;
33802;SDS011;20110;53.120;5.786;2023-03-19T00:31:41;5.43;;;5.05;;
33802;SDS011;20110;53.120;5.786;2023-03-19T00:34:07;6.95;;;6.60;;
33802;SDS011;20110;53.120;5.786;2023-03-19T00:36:34;10.93;;;10.00;;
33802;SDS011;20110;53.120;5.786;2023-03-19T00:39:01;6.47;;;6.15;;
33802;SDS011;20110;53.120;5.786;2023-03-19T00:41:28;5.88;;;5.45;;
33802;SDS011;20110;53.120;5.786;2023-03-19T00:43:54;3.95;;;3.65;;
33802;SDS011;20110;53.120;5.786;2023-03-19T00:46:21;10.27;;;9.73;;
33802;SDS011;20110;53.120;5.786;2023-03-19T00:48:49;19.58;;;18.38;;
33802;SDS011;20110;53.120;5.786;2023-03-19T00:51:19;9.02;;;8.55;;
33802;SDS011;20110;53.120;5.786;2023-03-19T00:53:46;9.77;;;9.30;;
33802;SDS011;20110;53.120;5.786;2023-03-19T00:56:13;10.45;;;9.75;;
33802;SDS011;20110;53.120;5.786;2023-03-19T00:58:42;9.07;;;8.50;;
33802;SDS011;20110;53.120;5.786;2023-03-19T01:01:10;8.35;;;6.78;;
33802;SDS011;20110;53.120;5.786;2023-03-19T01:03:40;5.35;;;4.95;;
33802;SDS011;20110;53.120;5.786;2023-03-19T01:06:06;5.15;;;4.38;;
33802;SDS011;20110;53.120;5.786;2023-03-19T01:08:32;5.32;;;4.82;;
33802;SDS011;20110;53.120;5.786;2023-03-19T01:11:08;8.05;;;7.30;;
33802;SDS011;20110;53.120;5.786;2023-03-19T01:13:38;8.85;;;8.25;;
33802;SDS011;20110;53.120;5.786;2023-03-19T01:16:05;12.23;;;11.35;;
33802;SDS011;20110;53.120;5.786;2023-03-19T01:18:31;12.35;;;11.45;;
33802;SDS011;20110;53.120;5.786;2023-03-19T01:20:58;6.45;;;5.95;;
33802;SDS011;20110;53.120;5.786;2023-03-19T01:23:24;6.57;;;6.18;;
33802;SDS011;20110;53.120;5.786;2023-03-19T01:25:50;5.93;;;5.45;;
33802;SDS011;20110;53.120;5.786;2023-03-19T01:28:16;8.48;;;7.82;;
33802;SDS011;20110;53.120;5.786;2023-03-19T01:30:43;9.48;;;8.70;;
33802;SDS011;20110;53.120;5.786;2023-03-19T01:33:08;10.68;;;9.48;;
33802;SDS011;20110;53.120;5.786;2023-03-19T01:35:34;18.35;;;16.60;;
33802;SDS011;20110;53.120;5.786;2023-03-19T01:38:00;13.23;;;11.73;;
33802;SDS011;20110;53.120;5.786;2023-03-19T01:40:26;22.90;;;20.60;;
33802;SDS011;20110;53.120;5.786;2023-03-19T01:42:54;11.05;;;10.05;;
33802;SDS011;20110;53.120;5.786;2023-03-19T01:45:42;12.65;;;10.18;;
33802;SDS011;20110;53.120;5.786;2023-03-19T01:48:54;13.18;;;11.32;;
33802;SDS011;20110;53.120;5.786;2023-03-19T01:51:04;16.75;;;15.13;;
33802;SDS011;20110;53.120;5.786;2023-03-19T01:53:35;17.15;;;15.57;;
33802;SDS011;20110;53.120;5.786;2023-03-19T01:56:09;12.65;;;11.50;;
33802;SDS011;20110;53.120;5.786;2023-03-19T01:58:42;20.42;;;18.42;;
33802;SDS011;20110;53.120;5.786;2023-03-19T02:01:11;13.85;;;12.10;;
33802;SDS011;20110;53.120;5.786;2023-03-19T02:03:37;9.93;;;8.38;;
33802;SDS011;20110;53.120;5.786;2023-03-19T02:06:05;14.77;;;10.68;;
33802;SDS011;20110;53.120;5.786;2023-03-19T02:08:34;12.00;;;10.80;;
33802;SDS011;20110;53.120;5.786;2023-03-19T02:11:01;18.52;;;17.05;;
33802;SDS011;20110;53.120;5.786;2023-03-19T02:13:27;18.45;;;16.17;;
33802;SDS011;20110;53.120;5.786;2023-03-19T02:15:54;20.75;;;18.40;;
33802;SDS011;20110;53.120;5.786;2023-03-19T02:18:23;21.45;;;19.30;;
33802;SDS011;20110;53.120;5.786;2023-03-19T02:20:50;13.70;;;12.43;;
33802;SDS011;20110;53.120;5.786;2023-03-19T02:26:51;10.85;;;9.75;;
33802;SDS011;20110;53.120;5.786;2023-03-19T02:29:17;25.75;;;23.13;;
33802;SDS011;20110;53.120;5.786;2023-03-19T02:31:43;32.50;;;29.05;;
33802;SDS011;20110;53.120;5.786;2023-03-19T02:36:45;34.38;;;30.58;;
33802;SDS011;20110;53.120;5.786;2023-03-19T02:39:26;36.22;;;32.20;;
33802;SDS011;20110;53.120;5.786;2023-03-19T02:42:01;17.02;;;13.93;;
33802;SDS011;20110;53.120;5.786;2023-03-19T02:44:30;20.52;;;14.02;;
33802;SDS011;20110;53.120;5.786;2023-03-19T02:46:55;35.58;;;27.23;;
33802;SDS011;20110;53.120;5.786;2023-03-19T02:49:21;26.95;;;24.15;;
33802;SDS011;20110;53.120;5.786;2023-03-19T02:51:48;45.67;;;37.35;;
33802;SDS011;20110;53.120;5.786;2023-03-19T02:54:15;56.60;;;51.22;;
33802;SDS011;20110;53.120;5.786;2023-03-19T02:56:41;44.25;;;37.63;;
33802;SDS011;20110;53.120;5.786;2023-03-19T02:59:07;46.15;;;31.55;;
33802;SDS011;20110;53.120;5.786;2023-03-19T03:01:33;32.88;;;26.52;;
33802;SDS011;20110;53.120;5.786;2023-03-19T03:03:59;27.65;;;19.90;;
33802;SDS011;20110;53.120;5.786;2023-03-19T03:06:25;24.38;;;18.23;;
33802;SDS011;20110;53.120;5.786;2023-03-19T03:08:51;23.17;;;18.55;;
33802;SDS011;20110;53.120;5.786;2023-03-19T03:11:17;28.25;;;24.70;;
33802;SDS011;20110;53.120;5.786;2023-03-19T03:13:42;34.25;;;29.48;;
33802;SDS011;20110;53.120;5.786;2023-03-19T03:16:08;38.63;;;33.35;;
33802;SDS011;20110;53.120;5.786;2023-03-19T03:18:34;38.60;;;27.10;;
33802;SDS011;20110;53.120;5.786;2023-03-19T03:21:00;53.08;;;47.55;;
33802;SDS011;20110;53.120;5.786;2023-03-19T03:23:27;30.88;;;22.67;;
33802;SDS011;20110;53.120;5.786;2023-03-19T03:25:53;28.25;;;21.45;;
33802;SDS011;20110;53.120;5.786;2023-03-19T03:28:19;24.83;;;18.17;;
33802;SDS011;20110;53.120;5.786;2023-03-19T03:30:45;24.73;;;20.15;;
33802;SDS011;20110;53.120;5.786;2023-03-19T03:33:11;29.40;;;20.67;;
33802;SDS011;20110;53.120;5.786;2023-03-19T03:35:37;33.30;;;24.00;;
33802;SDS011;20110;53.120;5.786;2023-03-19T03:38:03;39.65;;;28.90;;
33802;SDS011;20110;53.120;5.786;2023-03-19T03:40:30;33.05;;;23.90;;
33802;SDS011;20110;53.120;5.786;2023-03-19T03:42:57;35.92;;;27.80;;
33802;SDS011;20110;53.120;5.786;2023-03-19T03:45:23;35.20;;;31.38;;
33802;SDS011;20110;53.120;5.786;2023-03-19T03:47:49;32.88;;;21.75;;
33802;SDS011;20110;53.120;5.786;2023-03-19T03:50:15;26.63;;;20.15;;
33802;SDS011;20110;53.120;5.786;2023-03-19T03:52:41;30.13;;;20.40;;
33802;SDS011;20110;53.120;5.786;2023-03-19T03:55:07;32.58;;;23.08;;
33802;SDS011;20110;53.120;5.786;2023-03-19T03:57:33;38.97;;;23.20;;
33802;SDS011;20110;53.120;5.786;2023-03-19T04:00:00;39.05;;;25.83;;
33802;SDS011;20110;53.120;5.786;2023-03-19T04:02:26;38.28;;;34.10;;
33802;SDS011;20110;53.120;5.786;2023-03-19T04:04:52;33.97;;;21.67;;
33802;SDS011;20110;53.120;5.786;2023-03-19T04:07:18;42.53;;;26.60;;
33802;SDS011;20110;53.120;5.786;2023-03-19T04:09:44;32.33;;;24.88;;
33802;SDS011;20110;53.120;5.786;2023-03-19T04:12:11;39.45;;;21.48;;
33802;SDS011;20110;53.120;5.786;2023-03-19T04:14:37;44.10;;;23.75;;
33802;SDS011;20110;53.120;5.786;2023-03-19T04:17:04;46.90;;;27.95;;
33802;SDS011;20110;53.120;5.786;2023-03-19T04:19:30;50.60;;;34.88;;
33802;SDS011;20110;53.120;5.786;2023-03-19T04:21:57;51.00;;;29.60;;
33802;SDS011;20110;53.120;5.786;2023-03-19T04:24:23;48.28;;;28.42;;
33802;SDS011;20110;53.120;5.786;2023-03-19T04:26:50;51.40;;;27.95;;
33802;SDS011;20110;53.120;5.786;2023-03-19T04:29:17;36.42;;;23.95;;
33802;SDS011;20110;53.120;5.786;2023-03-19T04:31:43;46.72;;;25.13;;
33802;SDS011;20110;53.120;5.786;2023-03-19T04:34:09;56.35;;;28.27;;
33802;SDS011;20110;53.120;5.786;2023-03-19T04:36:36;60.55;;;33.42;;
33802;SDS011;20110;53.120;5.786;2023-03-19T04:39:04;62.72;;;33.60;;
33802;SDS011;20110;53.120;5.786;2023-03-19T04:41:30;69.28;;;35.83;;
33802;SDS011;20110;53.120;5.786;2023-03-19T04:43:56;70.25;;;33.95;;
33802;SDS011;20110;53.120;5.786;2023-03-19T04:46:22;71.93;;;36.58;;
33802;SDS011;20110;53.120;5.786;2023-03-19T04:48:48;71.03;;;33.20;;
33802;SDS011;20110;53.120;5.786;2023-03-19T04:51:14;81.57;;;33.97;;
33802;SDS011;20110;53.120;5.786;2023-03-19T04:53:40;74.53;;;31.88;;
33802;SDS011;20110;53.120;5.786;2023-03-19T04:56:06;92.13;;;33.10;;
33802;SDS011;20110;53.120;5.786;2023-03-19T04:58:32;83.57;;;34.45;;
33802;SDS011;20110;53.120;5.786;2023-03-19T05:00:59;83.45;;;41.67;;
33802;SDS011;20110;53.120;5.786;2023-03-19T05:03:25;86.20;;;39.75;;
33802;SDS011;20110;53.120;5.786;2023-03-19T05:05:52;88.60;;;40.35;;
33802;SDS011;20110;53.120;5.786;2023-03-19T05:08:19;84.10;;;37.22;;
33802;SDS011;20110;53.120;5.786;2023-03-19T05:10:45;70.03;;;31.10;;
33802;SDS011;20110;53.120;5.786;2023-03-19T05:13:11;53.90;;;28.20;;
33802;SDS011;20110;53.120;5.786;2023-03-19T05:15:37;59.85;;;27.98;;
33802;SDS011;20110;53.120;5.786;2023-03-19T05:18:07;65.78;;;28.58;;
33802;SDS011;20110;53.120;5.786;2023-03-19T05:20:33;52.95;;;26.63;;
33802;SDS011;20110;53.120;5.786;2023-03-19T05:23:00;57.80;;;26.48;;
33802;SDS011;20110;53.120;5.786;2023-03-19T05:25:25;48.85;;;25.67;;
33802;SDS011;20110;53.120;5.786;2023-03-19T05:27:51;56.25;;;25.63;;
33802;SDS011;20110;53.120;5.786;2023-03-19T05:30:17;53.50;;;25.75;;
33802;SDS011;20110;53.120;5.786;2023-03-19T05:32:43;56.90;;;26.55;;
33802;SDS011;20110;53.120;5.786;2023-03-19T05:35:10;68.72;;;29.42;;
33802;SDS011;20110;53.120;5.786;2023-03-19T05:37:37;62.22;;;29.95;;
33802;SDS011;20110;53.120;5.786;2023-03-19T05:40:03;60.13;;;27.25;;
33802;SDS011;20110;53.120;5.786;2023-03-19T05:42:31;45.17;;;25.15;;
33802;SDS011;20110;53.120;5.786;2023-03-19T05:44:56;78.20;;;31.75;;
33802;SDS011;20110;53.120;5.786;2023-03-19T05:47:23;74.53;;;36.00;;
33802;SDS011;20110;53.120;5.786;2023-03-19T05:49:48;96.40;;;37.85;;
33802;SDS011;20110;53.120;5.786;2023-03-19T05:52:15;94.15;;;35.85;;
33802;SDS011;20110;53.120;5.786;2023-03-19T05:54:41;89.45;;;39.13;;
33802;SDS011;20110;53.120;5.786;2023-03-19T05:57:06;93.78;;;41.25;;
33802;SDS011;20110;53.120;5.786;2023-03-19T05:59:33;76.78;;;37.17;;
33802;SDS011;20110;53.120;5.786;2023-03-19T06:01:59;57.55;;;26.00;;
33802;SDS011;20110;53.120;5.786;2023-03-19T06:04:25;80.22;;;32.08;;
33802;SDS011;20110;53.120;5.786;2023-03-19T06:06:51;119.72;;;35.42;;
33802;SDS011;20110;53.120;5.786;2023-03-19T06:09:17;109.43;;;34.95;;
33802;SDS011;20110;53.120;5.786;2023-03-19T06:11:44;89.05;;;32.38;;
33802;SDS011;20110;53.120;5.786;2023-03-19T06:14:09;96.50;;;36.65;;
33802;SDS011;20110;53.120;5.786;2023-03-19T06:16:35;98.50;;;40.35;;
33802;SDS011;20110;53.120;5.786;2023-03-19T06:19:01;79.07;;;34.00;;
33802;SDS011;20110;53.120;5.786;2023-03-19T06:21:27;87.22;;;47.40;;
33802;SDS011;20110;53.120;5.786;2023-03-19T06:23:57;87.68;;;33.70;;
33802;SDS011;20110;53.120;5.786;2023-03-19T06:26:23;74.55;;;30.05;;
33802;SDS011;20110;53.120;5.786;2023-03-19T06:28:50;71.60;;;30.10;;
33802;SDS011;20110;53.120;5.786;2023-03-19T06:31:16;96.88;;;50.75;;
33802;SDS011;20110;53.120;5.786;2023-03-19T06:33:42;86.60;;;40.15;;
33802;SDS011;20110;53.120;5.786;2023-03-19T06:36:08;89.88;;;44.58;;
33802;SDS011;20110;53.120;5.786;2023-03-19T06:38:34;82.35;;;36.58;;
33802;SDS011;20110;53.120;5.786;2023-03-19T06:41:01;48.60;;;29.08;;
33802;SDS011;20110;53.120;5.786;2023-03-19T06:43:27;76.05;;;31.33;;
33802;SDS011;20110;53.120;5.786;2023-03-19T06:45:52;60.15;;;29.75;;
33802;SDS011;20110;53.120;5.786;2023-03-19T06:48:18;75.68;;;33.17;;
33802;SDS011;20110;53.120;5.786;2023-03-19T06:50:45;76.03;;;41.25;;
33802;SDS011;20110;53.120;5.786;2023-03-19T06:53:11;88.20;;;39.55;;
33802;SDS011;20110;53.120;5.786;2023-03-19T06:55:38;67.90;;;41.38;;
33802;SDS011;20110;53.120;5.786;2023-03-19T06:58:04;74.65;;;42.58;;
33802;SDS011;20110;53.120;5.786;2023-03-19T07:00:31;39.85;;;24.85;;
33802;SDS011;20110;53.120;5.786;2023-03-19T07:02:58;52.25;;;36.08;;
33802;SDS011;20110;53.120;5.786;2023-03-19T07:05:24;53.88;;;29.60;;
33802;SDS011;20110;53.120;5.786;2023-03-19T07:07:50;63.50;;;38.65;;
33802;SDS011;20110;53.120;5.786;2023-03-19T07:10:19;65.90;;;33.95;;
33802;SDS011;20110;53.120;5.786;2023-03-19T07:12:45;73.10;;;33.30;;
33802;SDS011;20110;53.120;5.786;2023-03-19T07:15:11;64.60;;;30.35;;
33802;SDS011;20110;53.120;5.786;2023-03-19T07:17:37;75.28;;;41.83;;
33802;SDS011;20110;53.120;5.786;2023-03-19T07:20:03;82.47;;;35.53;;
33802;SDS011;20110;53.120;5.786;2023-03-19T07:22:30;76.03;;;36.05;;
33802;SDS011;20110;53.120;5.786;2023-03-19T07:24:56;71.57;;;42.97;;
33802;SDS011;20110;53.120;5.786;2023-03-19T07:27:22;87.30;;;35.85;;
33802;SDS011;20110;53.120;5.786;2023-03-19T07:29:48;66.15;;;34.78;;
33802;SDS011;20110;53.120;5.786;2023-03-19T07:32:14;114.30;;;41.65;;
33802;SDS011;20110;53.120;5.786;2023-03-19T07:34:39;78.20;;;35.33;;
33802;SDS011;20110;53.120;5.786;2023-03-19T07:37:05;76.40;;;36.88;;
33802;SDS011;20110;53.120;5.786;2023-03-19T07:39:31;72.68;;;30.90;;
33802;SDS011;20110;53.120;5.786;2023-03-19T07:41:58;93.45;;;41.80;;
33802;SDS011;20110;53.120;5.786;2023-03-19T07:44:23;112.15;;;44.83;;
33802;SDS011;20110;53.120;5.786;2023-03-19T07:46:49;83.90;;;36.08;;
33802;SDS011;20110;53.120;5.786;2023-03-19T07:49:15;135.07;;;42.05;;
33802;SDS011;20110;53.120;5.786;2023-03-19T07:51:41;165.43;;;46.50;;
33802;SDS011;20110;53.120;5.786;2023-03-19T07:54:07;174.57;;;46.95;;
33802;SDS011;20110;53.120;5.786;2023-03-19T07:56:32;96.85;;;37.40;;
33802;SDS011;20110;53.120;5.786;2023-03-19T07:58:58;134.15;;;40.30;;
33802;SDS011;20110;53.120;5.786;2023-03-19T08:01:24;154.13;;;42.88;;
33802;SDS011;20110;53.120;5.786;2023-03-19T08:03:50;107.07;;;37.90;;
33802;SDS011;20110;53.120;5.786;2023-03-19T08:06:16;147.38;;;38.65;;
33802;SDS011;20110;53.120;5.786;2023-03-19T08:08:42;165.73;;;40.92;;
33802;SDS011;20110;53.120;5.786;2023-03-19T08:11:08;106.88;;;32.47;;
33802;SDS011;20110;53.120;5.786;2023-03-19T08:13:34;148.40;;;36.25;;
33802;SDS011;20110;53.120;5.786;2023-03-19T08:15:59;101.00;;;32.22;;
33802;SDS011;20110;53.120;5.786;2023-03-19T08:18:25;188.65;;;32.85;;
33802;SDS011;20110;53.120;5.786;2023-03-19T08:20:51;143.18;;;30.85;;
33802;SDS011;20110;53.120;5.786;2023-03-19T08:23:17;156.10;;;26.50;;
33802;SDS011;20110;53.120;5.786;2023-03-19T08:25:43;40.42;;;22.20;;
33802;SDS011;20110;53.120;5.786;2023-03-19T08:28:09;107.65;;;25.10;;
33802;SDS011;20110;53.120;5.786;2023-03-19T08:30:36;104.75;;;23.75;;
33802;SDS011;20110;53.120;5.786;2023-03-19T08:33:02;54.58;;;20.65;;
33802;SDS011;20110;53.120;5.786;2023-03-19T08:35:28;67.65;;;22.70;;
33802;SDS011;20110;53.120;5.786;2023-03-19T08:37:54;72.57;;;20.30;;
33802;SDS011;20110;53.120;5.786;2023-03-19T08:40:21;75.63;;;20.20;;
33802;SDS011;20110;53.120;5.786;2023-03-19T08:42:47;49.72;;;18.27;;
33802;SDS011;20110;53.120;5.786;2023-03-19T08:45:14;56.85;;;20.45;;
33802;SDS011;20110;53.120;5.786;2023-03-19T08:47:40;63.03;;;21.77;;
33802;SDS011;20110;53.120;5.786;2023-03-19T08:50:07;81.95;;;23.70;;
33802;SDS011;20110;53.120;5.786;2023-03-19T08:52:35;61.38;;;20.83;;
33802;SDS011;20110;53.120;5.786;2023-03-19T08:55:01;68.40;;;23.27;;
33802;SDS011;20110;53.120;5.786;2023-03-19T08:57:28;45.80;;;20.55;;
33802;SDS011;20110;53.120;5.786;2023-03-19T08:59:56;68.00;;;22.90;;
33802;SDS011;20110;53.120;5.786;2023-03-19T09:02:22;53.90;;;31.98;;
33802;SDS011;20110;53.120;5.786;2023-03-19T09:04:48;64.40;;;22.60;;
33802;SDS011;20110;53.120;5.786;2023-03-19T09:07:14;63.15;;;22.95;;
33802;SDS011;20110;53.120;5.786;2023-03-19T09:09:40;76.82;;;25.13;;
33802;SDS011;20110;53.120;5.786;2023-03-19T09:12:10;65.85;;;23.85;;
33802;SDS011;20110;53.120;5.786;2023-03-19T09:14:39;79.25;;;25.40;;
33802;SDS011;20110;53.120;5.786;2023-03-19T09:17:05;72.30;;;28.05;;
33802;SDS011;20110;53.120;5.786;2023-03-19T09:19:31;67.07;;;27.67;;
33802;SDS011;20110;53.120;5.786;2023-03-19T09:21:58;57.83;;;22.00;;
33802;SDS011;20110;53.120;5.786;2023-03-19T09:24:24;55.95;;;24.08;;
33802;SDS011;20110;53.120;5.786;2023-03-19T09:26:50;54.97;;;21.08;;
33802;SDS011;20110;53.120;5.786;2023-03-19T09:29:17;63.70;;;21.27;;
33802;SDS011;20110;53.120;5.786;2023-03-19T09:31:43;62.08;;;21.58;;
33802;SDS011;20110;53.120;5.786;2023-03-19T09:34:09;67.28;;;24.00;;
33802;SDS011;20110;53.120;5.786;2023-03-19T09:36:35;80.30;;;25.90;;
33802;SDS011;20110;53.120;5.786;2023-03-19T09:39:02;70.28;;;26.77;;
33802;SDS011;20110;53.120;5.786;2023-03-19T09:44:29;55.75;;;22.88;;
33802;SDS011;20110;53.120;5.786;2023-03-19T09:49:56;43.95;;;19.08;;
33802;SDS011;20110;53.120;5.786;2023-03-19T09:52:44;44.53;;;20.42;;
33802;SDS011;20110;53.120;5.786;2023-03-19T09:57:59;30.20;;;13.98;;
33802;SDS011;20110;53.120;5.786;2023-03-19T10:00:27;42.00;;;18.40;;
33802;SDS011;20110;53.120;5.786;2023-03-19T10:15:20;37.38;;;16.35;;
33802;SDS011;20110;53.120;5.786;2023-03-19T10:17:55;42.30;;;18.63;;
33802;SDS011;20110;53.120;5.786;2023-03-19T10:26:20;43.63;;;19.33;;
33802;SDS011;20110;53.120;5.786;2023-03-19T10:29:00;39.22;;;20.13;;
33802;SDS011;20110;53.120;5.786;2023-03-19T10:34:41;53.42;;;23.15;;
33802;SDS011;20110;53.120;5.786;2023-03-19T10:37:14;48.33;;;23.67;;
33802;SDS011;20110;53.120;5.786;2023-03-19T10:39:46;45.47;;;24.77;;
33802;SDS011;20110;53.120;5.786;2023-03-19T10:45:23;46.28;;;21.92;;
33802;SDS011;20110;53.120;5.786;2023-03-19T10:47:53;31.50;;;16.42;;
33802;SDS011;20110;53.120;5.786;2023-03-19T10:50:26;41.72;;;17.77;;
33802;SDS011;20110;53.120;5.786;2023-03-19T10:55:43;36.90;;;18.23;;
33802;SDS011;20110;53.120;5.786;2023-03-19T10:58:24;42.55;;;19.50;;
33802;SDS011;20110;53.120;5.786;2023-03-19T11:01:11;41.72;;;18.55;;
33802;SDS011;20110;53.120;5.786;2023-03-19T11:06:35;33.50;;;17.88;;
33802;SDS011;20110;53.120;5.786;2023-03-19T11:09:13;29.95;;;19.40;;
33802;SDS011;20110;53.120;5.786;2023-03-19T11:12:04;35.10;;;19.42;;
33802;SDS011;20110;53.120;5.786;2023-03-19T11:14:44;43.75;;;20.40;;
33802;SDS011;20110;53.120;5.786;2023-03-19T11:17:16;45.88;;;19.58;;
33802;SDS011;20110;53.120;5.786;2023-03-19T11:22:53;45.03;;;19.65;;
33802;SDS011;20110;53.120;5.786;2023-03-19T11:26:08;42.17;;;20.15;;
33802;SDS011;20110;53.120;5.786;2023-03-19T11:28:23;37.90;;;19.75;;
33802;SDS011;20110;53.120;5.786;2023-03-19T11:37:32;47.40;;;22.80;;
33802;SDS011;20110;53.120;5.786;2023-03-19T11:43:43;39.42;;;21.52;;
33802;SDS011;20110;53.120;5.786;2023-03-19T11:55:40;52.83;;;25.92;;
33802;SDS011;20110;53.120;5.786;2023-03-19T12:03:58;62.17;;;28.70;;
33802;SDS011;20110;53.120;5.786;2023-03-19T12:06:55;60.15;;;26.02;;
33802;SDS011;20110;53.120;5.786;2023-03-19T12:12:28;67.43;;;30.92;;
33802;SDS011;20110;53.120;5.786;2023-03-19T12:18:25;47.13;;;25.88;;
33802;SDS011;20110;53.120;5.786;2023-03-19T12:21:08;57.60;;;26.25;;
33802;SDS011;20110;53.120;5.786;2023-03-19T12:29:59;56.58;;;24.33;;
33802;SDS011;20110;53.120;5.786;2023-03-19T12:35:21;65.85;;;28.52;;
33802;SDS011;20110;53.120;5.786;2023-03-19T12:37:59;57.45;;;24.90;;
33802;SDS011;20110;53.120;5.786;2023-03-19T12:41:02;40.95;;;23.15;;
33802;SDS011;20110;53.120;5.786;2023-03-19T12:43:48;57.42;;;26.33;;
33802;SDS011;20110;53.120;5.786;2023-03-19T12:46:38;69.10;;;27.50;;
33802;SDS011;20110;53.120;5.786;2023-03-19T12:49:10;55.03;;;25.15;;
33802;SDS011;20110;53.120;5.786;2023-03-19T12:51:42;51.40;;;25.40;;
33802;SDS011;20110;53.120;5.786;2023-03-19T12:54:20;48.92;;;23.30;;
33802;SDS011;20110;53.120;5.786;2023-03-19T12:56:55;46.20;;;26.33;;
33802;SDS011;20110;53.120;5.786;2023-03-19T12:59:56;53.30;;;25.00;;
33802;SDS011;20110;53.120;5.786;2023-03-19T13:08:24;48.75;;;24.90;;
33802;SDS011;20110;53.120;5.786;2023-03-19T13:10:58;56.88;;;26.13;;
33802;SDS011;20110;53.120;5.786;2023-03-19T13:13:41;53.47;;;24.50;;
33802;SDS011;20110;53.120;5.786;2023-03-19T13:21:48;53.10;;;30.23;;
33802;SDS011;20110;53.120;5.786;2023-03-19T13:24:25;61.13;;;26.58;;
33802;SDS011;20110;53.120;5.786;2023-03-19T13:26:57;63.03;;;27.90;;
33802;SDS011;20110;53.120;5.786;2023-03-19T13:29:29;61.80;;;27.35;;
33802;SDS011;20110;53.120;5.786;2023-03-19T13:32:02;45.70;;;25.33;;
33802;SDS011;20110;53.120;5.786;2023-03-19T13:34:46;39.65;;;24.67;;
33802;SDS011;20110;53.120;5.786;2023-03-19T13:37:13;66.65;;;28.00;;
33802;SDS011;20110;53.120;5.786;2023-03-19T13:39:45;57.53;;;26.13;;
33802;SDS011;20110;53.120;5.786;2023-03-19T13:45:25;41.88;;;21.85;;
33802;SDS011;20110;53.120;5.786;2023-03-19T13:50:59;53.30;;;24.75;;
33802;SDS011;20110;53.120;5.786;2023-03-19T13:59:35;61.17;;;26.02;;
33802;SDS011;20110;53.120;5.786;2023-03-19T14:04:51;63.60;;;31.17;;
33802;SDS011;20110;53.120;5.786;2023-03-19T14:07:38;56.75;;;24.20;;
33802;SDS011;20110;53.120;5.786;2023-03-19T14:10:07;52.42;;;24.58;;
33802;SDS011;20110;53.120;5.786;2023-03-19T14:12:40;59.05;;;25.70;;
33802;SDS011;20110;53.120;5.786;2023-03-19T14:22:39;60.38;;;25.58;;
33802;SDS011;20110;53.120;5.786;2023-03-19T14:31:31;55.58;;;23.88;;
33802;SDS011;20110;53.120;5.786;2023-03-19T14:36:35;51.20;;;25.63;;
33802;SDS011;20110;53.120;5.786;2023-03-19T14:39:11;55.05;;;24.85;;
33802;SDS011;20110;53.120;5.786;2023-03-19T14:57:34;103.50;;;30.40;;
33802;SDS011;20110;53.120;5.786;2023-03-19T15:05:23;89.20;;;27.25;;
33802;SDS011;20110;53.120;5.786;2023-03-19T15:07:52;82.28;;;27.45;;
33802;SDS011;20110;53.120;5.786;2023-03-19T15:10:23;72.30;;;27.17;;
33802;SDS011;20110;53.120;5.786;2023-03-19T15:18:24;101.85;;;28.45;;
33802;SDS011;20110;53.120;5.786;2023-03-19T15:20:51;80.82;;;26.35;;
33802;SDS011;20110;53.120;5.786;2023-03-19T15:23:20;78.80;;;26.17;;
33802;SDS011;20110;53.120;5.786;2023-03-19T15:25:52;76.43;;;25.73;;
33802;SDS011;20110;53.120;5.786;2023-03-19T15:28:25;74.63;;;21.70;;
33802;SDS011;20110;53.120;5.786;2023-03-19T15:31:07;63.88;;;23.55;;
33802;SDS011;20110;53.120;5.786;2023-03-19T15:33:34;67.20;;;22.77;;
33802;SDS011;20110;53.120;5.786;2023-03-19T15:36:13;63.10;;;23.17;;
33802;SDS011;20110;53.120;5.786;2023-03-19T15:39:05;50.10;;;19.67;;
33802;SDS011;20110;53.120;5.786;2023-03-19T15:41:37;48.50;;;19.75;;
33802;SDS011;20110;53.120;5.786;2023-03-19T15:44:10;44.90;;;20.13;;
33802;SDS011;20110;53.120;5.786;2023-03-19T15:46:55;45.30;;;19.98;;
33802;SDS011;20110;53.120;5.786;2023-03-19T15:49:27;35.42;;;16.92;;
33802;SDS011;20110;53.120;5.786;2023-03-19T15:52:03;33.40;;;17.42;;
33802;SDS011;20110;53.120;5.786;2023-03-19T15:54:35;29.02;;;15.88;;
33802;SDS011;20110;53.120;5.786;2023-03-19T15:57:02;30.13;;;13.50;;
33802;SDS011;20110;53.120;5.786;2023-03-19T15:59:32;25.88;;;12.30;;
33802;SDS011;20110;53.120;5.786;2023-03-19T16:01:58;27.35;;;14.63;;
33802;SDS011;20110;53.120;5.786;2023-03-19T16:04:27;28.55;;;16.23;;
33802;SDS011;20110;53.120;5.786;2023-03-19T16:06:57;19.23;;;15.10;;
33802;SDS011;20110;53.120;5.786;2023-03-19T16:11:54;21.63;;;14.75;;
33802;SDS011;20110;53.120;5.786;2023-03-19T16:16:57;36.65;;;14.07;;
33802;SDS011;20110;53.120;5.786;2023-03-19T16:19:33;42.03;;;14.10;;
33802;SDS011;20110;53.120;5.786;2023-03-19T16:22:23;36.65;;;16.45;;
33802;SDS011;20110;53.120;5.786;2023-03-19T16:24:53;36.72;;;13.85;;
33802;SDS011;20110;53.120;5.786;2023-03-19T16:27:38;25.90;;;12.55;;
33802;SDS011;20110;53.120;5.786;2023-03-19T16:30:13;35.53;;;13.05;;
33802;SDS011;20110;53.120;5.786;2023-03-19T16:33:03;35.22;;;12.82;;
33802;SDS011;20110;53.120;5.786;2023-03-19T16:35:31;38.97;;;12.93;;
33802;SDS011;20110;53.120;5.786;2023-03-19T16:38:13;39.53;;;15.55;;
33802;SDS011;20110;53.120;5.786;2023-03-19T16:40:48;71.22;;;19.17;;
33802;SDS011;20110;53.120;5.786;2023-03-19T16:43:42;66.00;;;21.95;;
33802;SDS011;20110;53.120;5.786;2023-03-19T16:46:11;79.28;;;17.83;;
33802;SDS011;20110;53.120;5.786;2023-03-19T16:48:41;66.68;;;16.55;;
33802;SDS011;20110;53.120;5.786;2023-03-19T16:51:10;59.65;;;15.57;;
33802;SDS011;20110;53.120;5.786;2023-03-19T16:53:44;60.10;;;15.98;;
33802;SDS011;20110;53.120;5.786;2023-03-19T16:56:12;47.92;;;17.50;;
33802;SDS011;20110;53.120;5.786;2023-03-19T16:58:40;49.22;;;14.88;;
33802;SDS011;20110;53.120;5.786;2023-03-19T17:01:19;47.95;;;14.13;;
33802;SDS011;20110;53.120;5.786;2023-03-19T17:03:49;43.90;;;14.30;;
33802;SDS011;20110;53.120;5.786;2023-03-19T17:06:16;51.28;;;15.18;;
33802;SDS011;20110;53.120;5.786;2023-03-19T17:08:43;48.78;;;14.23;;
33802;SDS011;20110;53.120;5.786;2023-03-19T17:11:15;40.55;;;16.40;;
33802;SDS011;20110;53.120;5.786;2023-03-19T17:13:56;41.70;;;13.40;;
33802;SDS011;20110;53.120;5.786;2023-03-19T17:16:23;38.38;;;13.85;;
33802;SDS011;20110;53.120;5.786;2023-03-19T17:18:51;47.47;;;13.73;;
33802;SDS011;20110;53.120;5.786;2023-03-19T17:21:22;43.60;;;13.32;;